• Join FlightAware (Why Join?)
  • Login
  • US Flag 
03:22PM EDT


 

Airport Tracker/Info


-or-


 

Live Flight TrackerFlight Track Log ✈ D-AIGN ✈ 18-Apr-2013 ✈ EDDF / FRA - FNLU / LAD

Flight Track Log - Related Links

Times and Time Zones

All times are in EDT time to prevent confusion due to time zone crossing. See the D-AIGN flight status page for this flight to view local times or setup timezone preferences in your user account.

Time Position Orientation Groundspeed Altitude Reporting Facility
EDT Latitude Longitude Course Direction KTS MPH feet Rate Location/Type
04:14PM 49.8920 8.5330 179° South 240 276 2,400  Level FlightAware
04:15PM 49.8240 8.5380 177° South 276 318 3,900 1,860 Climbing FlightAware
04:16PM 49.7900 8.5400 178° South 271 312 4,900 2,400 Climbing FlightAware
04:16PM 49.7520 8.5380 182° South 278 320 6,100 2,580 Climbing FlightAware
04:17PM 49.7130 8.5320 186° South 261 300 7,500 2,400 Climbing FlightAware
04:17PM 49.6820 8.5270 186° South 273 314 8,300 2,160 Climbing FlightAware
04:18PM 49.6440 8.5230 184° South 272 313 9,500 1,800 Climbing FlightAware
04:18PM 49.5940 8.5190 183° South 289 333 10,400 1,020 Climbing FlightAware
04:19PM 49.5360 8.5180 181° South 325 374 10,900 960 Climbing FlightAware
04:20PM 49.4760 8.5150 182° South 336 387 11,700 1,560 Climbing FlightAware
04:20PM 49.4070 8.5120 182° South 353 406 13,000 1,680 Climbing FlightAware
04:21PM 49.3290 8.5080 182° South 353 406 14,300 1,620 Climbing FlightAware
04:22PM 49.2640 8.5060 181° South 371 427 15,300 1,620 Climbing FlightAware
04:22PM 49.2350 8.5110 174° South 375 432 15,800 1,560 Climbing FlightAware
04:23PM 49.1580 8.5560 159° South 397 457 17,000 1,620 Climbing FlightAware
04:24PM 49.0860 8.5980 159° South 396 456 18,100 1,680 Climbing FlightAware
04:24PM 49.0070 8.6440 159° South 401 461 19,400 1,500 Climbing FlightAware
04:25PM 48.9330 8.6870 159° South 415 478 20,300 1,320 Climbing FlightAware
04:26PM 48.8620 8.7290 159° South 416 479 21,200 1,200 Climbing FlightAware
04:26PM 48.7780 8.7770 159° South 431 496 22,000 1,020 Climbing FlightAware
04:27PM 48.7030 8.8210 159° South 431 496 22,700 1,320 Climbing FlightAware
04:28PM 48.6270 8.8650 159° South 429 494 23,800 1,200 Climbing FlightAware
04:28PM 48.5420 8.9130 159° South 443 510 24,400 840 Climbing FlightAware
04:29PM 48.4650 8.9570 159° South 450 518 25,000 780 Climbing FlightAware
04:30PM 48.3880 9.0010 159° South 447 514 25,500 900 Climbing FlightAware
04:31PM 48.2990 9.0520 159° South 450 518 26,300 960 Climbing FlightAware
04:31PM 48.2190 9.0970 159° South 460 529 26,900 1,020 Climbing FlightAware
04:32PM 48.1270 9.1490 159° South 452 520 27,800 1,020 Climbing FlightAware
04:33PM 48.0470 9.1930 160° South 460 529 28,400 720 Climbing FlightAware
04:33PM 47.9560 9.2440 159° South 466 536 28,900 600 Climbing FlightAware
04:34PM 47.8910 9.2810 159° South 461 531 29,300 780 Climbing FlightAware
04:35PM 47.8060 9.3270 160° South 462 532 30,000 960 Climbing FlightAware
04:35PM 47.7250 9.3730 159° South 461 531 30,600 960 Climbing FlightAware
04:36PM 47.6260 9.4270 160° South 465 535 31,400 900 Climbing FlightAware
04:37PM 47.5370 9.4760 160° South 463 533 32,000 720 Climbing FlightAware
04:38PM 47.4580 9.5190 160° South 463 533 32,500 660 Climbing FlightAware
04:38PM 47.3690 9.5680 160° South 462 532 33,000 300 Climbing FlightAware
04:39PM 47.2860 9.6120 160° South 464 534 33,000  Level FlightAware
04:40PM 47.2190 9.6490 159° South 476 548 33,000  Level FlightAware
04:40PM 47.1210 9.7020 160° South 467 537 33,000  Level FlightAware
04:41PM 47.0260 9.7530 160° South 474 545 33,000  Level FlightAware
04:42PM 46.9410 9.7980 160° South 472 543 33,000  Level FlightAware
04:42PM 46.8510 9.8460 160° South 462 532 33,000  Level FlightAware
04:43PM 46.7820 9.8830 160° South 462 532 33,000  Level FlightAware
04:44PM 46.6750 9.9390 160° South 470 541 33,000  Level FlightAware
04:45PM 46.5930 9.9830 160° South 470 541 33,000  Level FlightAware
04:45PM 46.5120 10.0260 160° South 470 541 33,000  Level FlightAware
04:46PM 46.4210 10.0820 157° South 473 544 33,000  Level FlightAware
04:47PM 46.3410 10.1410 153° Southeast 475 547 33,000  Level FlightAware
04:47PM 46.2630 10.1960 154° Southeast 477 549 33,000  Level FlightAware
04:48PM 46.1760 10.2580 154° Southeast 478 550 33,000  Level FlightAware
04:49PM 46.0960 10.3140 154° Southeast 477 549 33,000  Level FlightAware
04:49PM 46.0160 10.3710 154° Southeast 477 549 33,000  Level FlightAware
04:50PM 45.9260 10.4340 154° Southeast 477 549 33,000  Level FlightAware
04:51PM 45.8460 10.4900 154° Southeast 478 550 33,000  Level FlightAware
04:52PM 45.7580 10.5510 154° Southeast 479 551 33,000  Level FlightAware
04:52PM 45.6780 10.6070 154° Southeast 479 551 33,000  Level FlightAware
04:53PM 45.5980 10.6600 155° Southeast 478 550 33,000  Level FlightAware
04:54PM 45.5070 10.7140 157° South 485 558 33,000  Level FlightAware
04:54PM 45.4220 10.7650 157° South 486 559 33,000  Level FlightAware
04:55PM 45.3320 10.8190 157° South 487 560 33,000  Level FlightAware
04:56PM 45.2480 10.8690 157° South 488 562 33,000  Level FlightAware
04:56PM 45.1620 10.9030 164° South 487 560 33,000  Level FlightAware
04:57PM 45.0620 10.9400 165° South 487 560 33,000  Level FlightAware
04:58PM 44.9740 10.9730 165° South 488 562 33,000  Level FlightAware
04:59PM 44.8750 11.0090 166° South 490 564 33,000  Level FlightAware
04:59PM 44.7950 11.0390 165° South 491 565 33,000  Level FlightAware
05:00PM 44.6920 11.0770 165° South 493 567 33,000  Level FlightAware
05:01PM 44.6020 11.1100 165° South 494 568 33,000  Level FlightAware
05:01PM 44.5130 11.1430 165° South 493 567 33,000  Level FlightAware
05:02PM 44.4150 11.1790 165° South 493 567 33,000  Level FlightAware
05:03PM 44.3260 11.2120 165° South 492 566 33,000  Level FlightAware
05:03PM 44.2380 11.2440 165° South 493 567 33,000  Level FlightAware
05:04PM 44.1370 11.2810 165° South 492 566 33,000  Level FlightAware
05:05PM 44.0480 11.3110 166° South 493 567 33,000  Level FlightAware
05:06PM 43.9480 11.3320 171° South 492 566 33,000  Level FlightAware
05:06PM 43.8580 11.3520 171° South 488 562 33,000  Level FlightAware
05:07PM 43.7600 11.3750 170° South 488 562 33,000  Level FlightAware
05:08PM 43.6730 11.3960 170° South 487 560 33,000  Level FlightAware
05:08PM 43.5790 11.4180 170° South 488 562 33,000  Level FlightAware
05:09PM 43.4790 11.4410 171° South 490 564 33,000  Level FlightAware
05:10PM 43.3910 11.4620 170° South 492 566 33,000  Level FlightAware
05:10PM 43.2900 11.4860 170° South 494 568 33,000  Level FlightAware
05:11PM 43.2000 11.5070 170° South 495 570 33,000  Level FlightAware
05:12PM 43.1080 11.5280 171° South 495 570 33,000  Level FlightAware
05:13PM 43.0090 11.5510 170° South 494 568 33,000  Level FlightAware
05:13PM 42.9200 11.5720 170° South 492 566 33,000  Level FlightAware
05:14PM 42.8260 11.5930 171° South 495 570 33,000  Level FlightAware
05:15PM 42.7270 11.6160 170° South 495 570 33,000  Level FlightAware
05:15PM 42.6350 11.6370 170° South 496 571 33,000  Level FlightAware
05:16PM 42.5340 11.6600 170° South 498 573 33,000  Level FlightAware
05:17PM 42.4300 11.6840 170° South 499 574 33,000  Level FlightAware
05:17PM 42.3390 11.7040 171° South 500 575 33,000  Level FlightAware
05:18PM 42.2500 11.7250 170° South 500 575 33,000  Level FlightAware
05:19PM 42.1500 11.7610 165° South 500 575 33,000  Level FlightAware
05:20PM 42.0620 11.8030 160° South 501 577 33,000  Level FlightAware
05:20PM 41.9470 11.8570 161° South 494 568 33,000  Level FlightAware
05:21PM 41.8480 11.9030 161° South 495 570 33,000  Level FlightAware
05:22PM 41.7590 11.9440 161° South 495 570 33,000  Level FlightAware
05:23PM 41.6610 11.9890 161° South 494 568 33,000  Level FlightAware
05:23PM 41.5720 12.0290 161° South 493 567 33,000  Level FlightAware
05:24PM 41.4830 12.0640 164° South 501 577 33,000  Level FlightAware
05:25PM 41.3830 12.1020 164° South 502 578 33,000  Level FlightAware
05:25PM 41.3170 12.1280 164° South 502 578 33,000  Level FlightAware
05:26PM 41.2130 12.1680 164° South 504 580 33,000  Level FlightAware
05:27PM 41.1150 12.1910 170° South 506 582 33,000  Level FlightAware
05:28PM 40.9980 12.2060 174° South 506 582 33,000  Level FlightAware
05:28PM 40.9090 12.2180 174° South 508 585 33,000  Level FlightAware
05:29PM 40.8060 12.2270 176° South 510 587 33,000  Level FlightAware
05:30PM 40.7080 12.2350 176° South 512 589 33,000  Level FlightAware
05:30PM 40.6040 12.2440 176° South 511 588 33,000  Level FlightAware
05:31PM 40.5030 12.2520 177° South 511 588 33,000  Level FlightAware
05:32PM 40.3980 12.2620 176° South 511 588 33,000  Level FlightAware
05:33PM 40.3010 12.2700 176° South 512 589 33,000  Level FlightAware
05:33PM 40.1980 12.2790 176° South 512 589 33,000  Level FlightAware
05:34PM 40.1020 12.2870 176° South 513 590 33,000  Level FlightAware
05:35PM 40.0340 12.2930 176° South 514 592 33,000  Level FlightAware
05:36PM 39.8720 12.3070 176° South 513 590 33,000  Level FlightAware
05:36PM 39.7730 12.3150 176° South 512 589 33,000  Level FlightAware
05:37PM 39.6790 12.3230 176° South 512 589 33,000  Level FlightAware
05:38PM 39.5830 12.3320 176° South 512 589 33,000  Level FlightAware
05:38PM 39.4590 12.3420 176° South 514 592 33,000  Level FlightAware
05:39PM 39.3510 12.3510 176° South 515 593 33,000  Level FlightAware
05:40PM 39.2470 12.3600 176° South 516 594 33,000  Level FlightAware
05:41PM 39.1560 12.3680 176° South 517 595 33,000  Level FlightAware
05:41PM 39.0650 12.3750 177° South 518 596 33,000  Level FlightAware
05:42PM 38.9520 12.3850 176° South 518 596 33,000  Level FlightAware
05:43PM 38.8530 12.3930 176° South 518 596 33,000  Level FlightAware
05:43PM 38.7510 12.4010 176° South 519 597 33,000  Level FlightAware
05:44PM 38.6520 12.4100 176° South 520 598 33,000  Level FlightAware
05:45PM 38.5490 12.4180 177° South 520 598 33,000  Level FlightAware
05:45PM 38.4560 12.4260 176° South 521 600 33,000  Level FlightAware
05:46PM 38.3450 12.4350 176° South 522 601 33,000  Level FlightAware
05:47PM 38.2370 12.4440 176° South 523 602 33,000  Level FlightAware
05:48PM 38.1440 12.4510 177° South 524 603 33,000  Level FlightAware
05:48PM 38.0490 12.4590 176° South 525 604 33,000  Level FlightAware
05:49PM 37.9350 12.4680 176° South 527 606 33,000  Level FlightAware
05:50PM 37.8370 12.4760 176° South 528 608 33,000  Level FlightAware
05:50PM 37.7310 12.4850 176° South 528 608 33,000  Level FlightAware
05:51PM 37.6310 12.4930 176° South 529 609 33,000  Level FlightAware
05:52PM 37.5300 12.5010 176° South 529 609 33,000  Level FlightAware
05:52PM 37.4190 12.5100 176° South 530 610 33,000  Level FlightAware
05:53PM 37.3220 12.5180 176° South 531 611 33,000  Level FlightAware
05:54PM 37.2110 12.5220 178° South 532 612 33,000  Level FlightAware
05:55PM 37.1130 12.5260 178° South 532 612 33,000  Level FlightAware
05:55PM 37.0080 12.5300 178° South 532 612 33,000  Level FlightAware
05:56PM 36.9040 12.5340 178° South 532 612 33,000  Level FlightAware
05:57PM 36.8070 12.5380 178° South 532 612 33,000  Level FlightAware
05:57PM 36.6970 12.5430 178° South 532 612 33,000  Level FlightAware
05:58PM 36.5970 12.5470 178° South 533 613 33,000  Level FlightAware
05:59PM 36.4860 12.5520 178° South 533 613 33,000  Level FlightAware
05:59PM 36.3880 12.5560 178° South 534 615 33,000  Level FlightAware
06:00PM 36.2880 12.5600 178° South 535 616 33,000  Level FlightAware
06:01PM 36.1750 12.5640 178° South 536 617 33,000  Level FlightAware
06:02PM 36.0760 12.5680 178° South 535 616 33,000  Level FlightAware
06:02PM 35.9780 12.5720 178° South 534 615 33,000  Level FlightAware
06:03PM 35.8660 12.5770 178° South 533 613 33,000  Level FlightAware
06:04PM 35.7670 12.5810 178° South 534 615 33,000  Level FlightAware
06:04PM 35.6570 12.5850 178° South 534 615 33,000  Level FlightAware
06:05PM 35.5570 12.5890 178° South 535 616 33,000  Level FlightAware
06:06PM 35.4490 12.5940 178° South 534 615 33,000  Level FlightAware
06:06PM 35.3470 12.5980 178° South 533 613 33,000  Level FlightAware
06:07PM 35.2490 12.6020 178° South 532 612 33,000  Level FlightAware
06:08PM 35.1400 12.6060 178° South 532 612 33,000  Level FlightAware
06:09PM 35.0400 12.6100 178° South 534 615 33,000  Level FlightAware
06:09PM 34.9420 12.6140 178° South 535 616 33,000  Level FlightAware
06:10PM 34.8280 12.6180 178° South 536 617 33,000  Level FlightAware
06:11PM 34.7290 12.6220 178° South 535 616 33,000  Level FlightAware
06:11PM 34.6240 12.6260 178° South 534 615 33,000  Level FlightAware
06:12PM 34.5200 12.6300 178° South 534 615 33,000  Level FlightAware
06:13PM 34.4220 12.6340 178° South 534 615 33,000  Level FlightAware
06:13PM 34.3220 12.6380 178° South 534 615 33,000  Level FlightAware
06:14PM 34.2070 12.6380 180° South 534 615 33,000  Level FlightAware
06:15PM 34.0970 12.6360 181° South 535 616 33,000  Level FlightAware
06:16PM 34.0040 12.6350 181° South 527 606 33,000  Level FlightAware
06:16PM 33.9220 12.6350 180° South 527 606 33,000  Level FlightAware
06:17PM 33.7700 12.6340 180° South 534 615 33,000  Level FlightAware
06:18PM 33.6700 12.6330 180° South 533 613 33,000  Level FlightAware
06:19PM 33.5570 12.6320 180° South 531 611 33,000  Level FlightAware
06:19PM 33.4550 12.6310 180° South 530 610 33,000  Level FlightAware
06:20PM 33.3440 12.6340 179° South 530 610 33,000  Level FlightAware
06:21PM 33.2360 12.6370 179° South 530 610 33,000  Level FlightAware
06:22PM 33.1230 12.6390 179° South 529 609 33,000  Level FlightAware
06:22PM 33.0400 12.6410 179° South 529 609 33,000  Level FlightAware
06:25PM 32.7502 12.6462 179° South  Level Estimated
06:26PM 32.6232 12.6485 179° South  Level Estimated
06:27PM 32.4963 12.6508 179° South  Level Estimated
06:28PM 32.3694 12.6531 179° South  Level Estimated
06:29PM 32.2425 12.6554 179° South  Level Estimated
06:30PM 32.1155 12.6576 179° South  Level Estimated
06:31PM 31.9886 12.6599 179° South  Level Estimated
06:32PM 31.8617 12.6621 179° South  Level Estimated
06:33PM 31.7347 12.6644 179° South  Level Estimated
06:34PM 31.6078 12.6666 179° South  Level Estimated
06:35PM 31.4809 12.6689 179° South  Level Estimated
06:36PM 31.3539 12.6711 179° South  Level Estimated
06:37PM 31.2270 12.6733 179° South  Level Estimated
06:38PM 31.1001 12.6755 179° South  Level Estimated
06:39PM 30.9732 12.6777 179° South  Level Estimated
06:40PM 30.8462 12.6799 179° South  Level Estimated
06:41PM 30.7193 12.6821 179° South  Level Estimated
06:42PM 30.5924 12.6843 179° South  Level Estimated
06:43PM 30.4654 12.6865 179° South  Level Estimated
06:44PM 30.3385 12.6887 179° South  Level Estimated
06:45PM 30.2116 12.6909 179° South  Level Estimated
06:46PM 30.0846 12.6930 179° South  Level Estimated
06:47PM 29.9577 12.6952 179° South  Level Estimated
06:48PM 29.8308 12.6973 179° South  Level Estimated
06:49PM 29.7038 12.6995 179° South  Level Estimated
06:50PM 29.5769 12.7016 179° South  Level Estimated
06:51PM 29.4500 12.7038 179° South  Level Estimated
06:52PM 29.3231 12.7059 179° South  Level Estimated
06:53PM 29.1961 12.7081 179° South  Level Estimated
06:54PM 29.0692 12.7102 179° South  Level Estimated
06:55PM 28.9423 12.7123 179° South  Level Estimated
06:56PM 28.8153 12.7144 179° South  Level Estimated
06:57PM 28.6884 12.7165 179° South  Level Estimated
06:58PM 28.5615 12.7186 179° South  Level Estimated
06:59PM 28.4345 12.7207 179° South  Level Estimated
07:00PM 28.3076 12.7228 179° South  Level Estimated
07:01PM 28.1807 12.7249 179° South  Level Estimated
07:02PM 28.0538 12.7270 179° South  Level Estimated
07:03PM 27.9268 12.7291 179° South  Level Estimated
07:04PM 27.7999 12.7311 179° South  Level Estimated
07:05PM 27.6730 12.7332 179° South  Level Estimated
07:06PM 27.5460 12.7353 179° South  Level Estimated
07:07PM 27.4191 12.7374 179° South  Level Estimated
07:08PM 27.2922 12.7394 179° South  Level Estimated
07:09PM 27.1653 12.7415 179° South  Level Estimated
07:10PM 27.0383 12.7435 179° South  Level Estimated
07:11PM 26.9114 12.7456 179° South  Level Estimated
07:12PM 26.7845 12.7476 179° South  Level Estimated
07:13PM 26.6575 12.7496 179° South  Level Estimated
07:14PM 26.5306 12.7516 179° South  Level Estimated
07:15PM 26.4037 12.7537 179° South  Level Estimated
07:16PM 26.2767 12.7557 179° South  Level Estimated
07:17PM 26.1498 12.7577 179° South  Level Estimated
07:18PM 26.0229 12.7597 179° South  Level Estimated
07:19PM 25.8960 12.7617 179° South  Level Estimated
07:20PM 25.7690 12.7637 179° South  Level Estimated
07:21PM 25.6421 12.7657 179° South  Level Estimated
07:22PM 25.5152 12.7677 179° South  Level Estimated
07:23PM 25.3882 12.7697 179° South  Level Estimated
07:24PM 25.2613 12.7717 179° South  Level Estimated
07:25PM 25.1343 12.7737 179° South  Level Estimated
07:26PM 25.0074 12.7756 179° South  Level Estimated
07:27PM 24.8804 12.7776 179° South  Level Estimated
07:28PM 24.7535 12.7796 179° South  Level Estimated
07:29PM 24.6266 12.7815 179° South  Level Estimated
07:30PM 24.4996 12.7835 179° South  Level Estimated
07:31PM 24.3727 12.7855 179° South  Level Estimated
07:32PM 24.2458 12.7874 179° South  Level Estimated
07:33PM 24.1188 12.7894 179° South  Level Estimated
07:34PM 23.9919 12.7913 179° South  Level Estimated
07:35PM 23.8649 12.7932 179° South  Level Estimated
07:36PM 23.7380 12.7952 179° South  Level Estimated
07:37PM 23.6110 12.7971 179° South  Level Estimated
07:38PM 23.4841 12.7990 179° South  Level Estimated
07:39PM 23.3572 12.8010 179° South  Level Estimated
07:40PM 23.2302 12.8029 179° South  Level Estimated
07:41PM 23.1033 12.8048 179° South  Level Estimated
07:42PM 22.9764 12.8067 179° South  Level Estimated
07:43PM 22.8494 12.8086 179° South  Level Estimated
07:44PM 22.7225 12.8105 179° South  Level Estimated
07:45PM 22.5955 12.8125 179° South  Level Estimated
07:46PM 22.4686 12.8144 179° South  Level Estimated
07:47PM 22.3417 12.8162 179° South  Level Estimated
07:48PM 22.2147 12.8181 179° South  Level Estimated
07:49PM 22.0878 12.8200 179° South  Level Estimated
07:50PM 21.9608 12.8219 179° South  Level Estimated
07:51PM 21.8339 12.8238 179° South  Level Estimated
07:52PM 21.7069 12.8257 179° South  Level Estimated
07:53PM 21.5800 12.8276 179° South  Level Estimated
07:54PM 21.4531 12.8294 179° South  Level Estimated
07:55PM 21.3261 12.8313 179° South  Level Estimated
07:56PM 21.1992 12.8332 179° South  Level Estimated
07:57PM 21.0723 12.8350 179° South  Level Estimated
07:58PM 20.9453 12.8369 179° South  Level Estimated
07:59PM 20.8184 12.8387 179° South  Level Estimated
08:00PM 20.6914 12.8406 179° South  Level Estimated
08:01PM 20.5645 12.8425 179° South  Level Estimated
08:02PM 20.4375 12.8443 179° South  Level Estimated
08:03PM 20.3106 12.8462 179° South  Level Estimated
08:04PM 20.1837 12.8480 179° South  Level Estimated
08:05PM 20.0567 12.8498 179° South  Level Estimated
08:06PM 19.9298 12.8517 179° South  Level Estimated
08:07PM 19.8029 12.8535 179° South  Level Estimated
08:08PM 19.6759 12.8553 179° South  Level Estimated
08:09PM 19.5490 12.8572 179° South  Level Estimated
08:10PM 19.4220 12.8590 179° South  Level Estimated
08:11PM 19.2951 12.8608 179° South  Level Estimated
08:12PM 19.1681 12.8626 179° South  Level Estimated
08:13PM 19.0412 12.8644 179° South  Level Estimated
08:14PM 18.9143 12.8663 179° South  Level Estimated
08:15PM 18.7873 12.8681 179° South  Level Estimated
08:16PM 18.6604 12.8699 179° South  Level Estimated
08:17PM 18.5334 12.8717 179° South  Level Estimated
08:18PM 18.4065 12.8735 179° South  Level Estimated
08:19PM 18.2796 12.8753 179° South  Level Estimated
08:20PM 18.1526 12.8771 179° South  Level Estimated
08:21PM 18.0257 12.8789 179° South  Level Estimated
08:22PM 17.8988 12.8807 179° South  Level Estimated
08:23PM 17.7718 12.8825 179° South  Level Estimated
08:24PM 17.6449 12.8842 179° South  Level Estimated
08:25PM 17.5179 12.8860 179° South  Level Estimated
08:26PM 17.3910 12.8878 179° South  Level Estimated
08:27PM 17.2640 12.8896 179° South  Level Estimated
08:28PM 17.1371 12.8914 179° South  Level Estimated
08:29PM 17.0102 12.8931 179° South  Level Estimated
08:30PM 16.8832 12.8949 179° South  Level Estimated
08:31PM 16.7563 12.8967 179° South  Level Estimated
08:32PM 16.6294 12.8984 179° South  Level Estimated
08:33PM 16.5024 12.9002 179° South  Level Estimated
08:34PM 16.3755 12.9020 179° South  Level Estimated
08:35PM 16.2485 12.9037 179° South  Level Estimated
08:36PM 16.1216 12.9055 179° South  Level Estimated
08:37PM 15.9946 12.9073 179° South  Level Estimated
08:38PM 15.8677 12.9090 179° South  Level Estimated
08:39PM 15.7408 12.9108 179° South  Level Estimated
08:40PM 15.6138 12.9125 179° South  Level Estimated
08:41PM 15.4869 12.9143 179° South  Level Estimated
08:42PM 15.3600 12.9160 179° South  Level Estimated
08:43PM 15.2330 12.9177 179° South  Level Estimated
08:44PM 15.1061 12.9195 179° South  Level Estimated
08:45PM 14.9791 12.9212 179° South  Level Estimated
08:46PM 14.8522 12.9230 179° South  Level Estimated
08:47PM 14.7253 12.9247 179° South  Level Estimated
08:48PM 14.5983 12.9264 179° South  Level Estimated
08:49PM 14.4714 12.9282 179° South  Level Estimated
08:50PM 14.3444 12.9299 179° South  Level Estimated
08:51PM 14.2175 12.9316 179° South  Level Estimated
08:52PM 14.0906 12.9333 179° South  Level Estimated
08:53PM 13.9636 12.9351 179° South  Level Estimated
08:54PM 13.8367 12.9368 179° South  Level Estimated
08:55PM 13.7097 12.9385 179° South  Level Estimated
08:56PM 13.5828 12.9402 179° South  Level Estimated
08:57PM 13.4558 12.9419 179° South  Level Estimated
08:58PM 13.3289 12.9436 179° South  Level Estimated
08:59PM 13.2020 12.9453 179° South  Level Estimated
09:00PM 13.0750 12.9471 179° South  Level Estimated
09:01PM 12.9481 12.9488 179° South  Level Estimated
09:02PM 12.8211 12.9505 179° South  Level Estimated
09:03PM 12.6942 12.9522 179° South  Level Estimated
09:04PM 12.5673 12.9539 179° South  Level Estimated
09:05PM 12.4403 12.9556 179° South  Level Estimated
09:06PM 12.3134 12.9573 179° South  Level Estimated
09:07PM 12.1865 12.9590 179° South  Level Estimated
09:08PM 12.0595 12.9607 179° South  Level Estimated
09:09PM 11.9326 12.9624 179° South  Level Estimated
09:10PM 11.8056 12.9641 179° South  Level Estimated
09:11PM 11.6787 12.9658 179° South  Level Estimated
09:12PM 11.5518 12.9675 179° South  Level Estimated
09:13PM 11.4248 12.9691 179° South  Level Estimated
09:14PM 11.2979 12.9708 179° South  Level Estimated
09:15PM 11.1709 12.9725 179° South  Level Estimated
09:16PM 11.0440 12.9742 179° South  Level Estimated
09:17PM 10.9171 12.9759 179° South  Level Estimated
09:18PM 10.7901 12.9776 179° South  Level Estimated
09:19PM 10.6632 12.9792 179° South  Level Estimated
09:20PM 10.5362 12.9809 179° South  Level Estimated
09:21PM 10.4093 12.9826 179° South  Level Estimated
09:22PM 10.2823 12.9843 179° South  Level Estimated
09:23PM 10.1554 12.9860 179° South  Level Estimated
09:24PM 10.0285 12.9876 179° South  Level Estimated
09:25PM 9.9015 12.9893 179° South  Level Estimated
09:26PM 9.7746 12.9910 179° South  Level Estimated
09:27PM 9.6476 12.9926 179° South  Level Estimated
09:28PM 9.5207 12.9943 179° South  Level Estimated
09:29PM 9.3938 12.9960 179° South  Level Estimated
09:30PM 9.2668 12.9977 179° South  Level Estimated
09:31PM 9.1399 12.9993 179° South  Level Estimated
09:32PM 9.0129 13.0010 179° South  Level Estimated
09:33PM 8.8860 13.0026 179° South  Level Estimated
09:34PM 8.7591 13.0043 179° South  Level Estimated
09:35PM 8.6321 13.0059 179° South  Level Estimated
09:36PM 8.5052 13.0076 179° South  Level Estimated
09:37PM 8.3783 13.0093 179° South  Level Estimated
09:38PM 8.2513 13.0109 179° South  Level Estimated
09:39PM 8.1244 13.0126 179° South  Level Estimated
09:40PM 7.9974 13.0142 179° South  Level Estimated
09:41PM 7.8705 13.0159 179° South  Level Estimated
09:42PM 7.7435 13.0175 179° South  Level Estimated
09:43PM 7.6166 13.0192 179° South  Level Estimated
09:44PM 7.4897 13.0208 179° South  Level Estimated
09:45PM 7.3627 13.0225 179° South  Level Estimated
09:46PM 7.2358 13.0241 179° South  Level Estimated
09:47PM 7.1089 13.0258 179° South  Level Estimated
09:48PM 6.9819 13.0274 179° South  Level Estimated
09:49PM 6.8550 13.0291 179° South  Level Estimated
09:50PM 6.7280 13.0307 179° South  Level Estimated
09:51PM 6.6011 13.0324 179° South  Level Estimated
09:52PM 6.4742 13.0340 179° South  Level Estimated
09:53PM 6.3472 13.0357 179° South  Level Estimated
09:54PM 6.2203 13.0373 179° South  Level Estimated
09:55PM 6.0933 13.0389 179° South  Level Estimated
09:56PM 5.9664 13.0406 179° South  Level Estimated
09:57PM 5.8394 13.0422 179° South  Level Estimated
09:58PM 5.7125 13.0438 179° South  Level Estimated
09:59PM 5.5856 13.0455 179° South  Level Estimated
10:00PM 5.4586 13.0471 179° South  Level Estimated
10:01PM 5.3317 13.0488 179° South  Level Estimated
10:02PM 5.2048 13.0504 179° South  Level Estimated
10:03PM 5.0778 13.0520 179° South  Level Estimated
10:04PM 4.9509 13.0537 179° South  Level Estimated
10:05PM 4.8239 13.0553 179° South  Level Estimated
10:06PM 4.6970 13.0569 179° South  Level Estimated
10:07PM 4.5700 13.0586 179° South  Level Estimated
10:08PM 4.4431 13.0602 179° South  Level Estimated
10:09PM 4.3162 13.0618 179° South  Level Estimated
10:10PM 4.1892 13.0634 179° South  Level Estimated
10:11PM 4.0623 13.0651 179° South  Level Estimated
10:12PM 3.9353 13.0667 179° South  Level Estimated
10:13PM 3.8084 13.0683 179° South  Level Estimated
10:14PM 3.6815 13.0700 179° South  Level Estimated
10:15PM 3.5545 13.0716 179° South  Level Estimated
10:16PM 3.4276 13.0732 179° South  Level Estimated
10:17PM 3.3006 13.0749 179° South  Level Estimated
10:18PM 3.1737 13.0765 179° South  Level Estimated
10:19PM 3.0468 13.0781 179° South  Level Estimated
10:20PM 2.9198 13.0798 179° South  Level Estimated
10:21PM 2.7929 13.0814 179° South  Level Estimated
10:22PM 2.6660 13.0830 179° South  Level Estimated
10:23PM 2.5390 13.0846 179° South  Level Estimated
10:24PM 2.4121 13.0863 179° South  Level Estimated
10:25PM 2.2851 13.0879 179° South  Level Estimated
10:26PM 2.1582 13.0895 179° South  Level Estimated
10:27PM 2.0312 13.0911 179° South  Level Estimated
10:28PM 1.9043 13.0927 179° South  Level Estimated
10:29PM 1.7774 13.0944 179° South  Level Estimated
10:30PM 1.6504 13.0960 179° South  Level Estimated
10:31PM 1.5235 13.0976 179° South  Level Estimated
10:32PM 1.3966 13.0992 179° South  Level Estimated
10:33PM 1.2696 13.1008 179° South  Level Estimated
10:34PM 1.1427 13.1025 179° South  Level Estimated
10:35PM 1.0157 13.1041 179° South  Level Estimated
10:36PM 0.8888 13.1057 179° South  Level Estimated
10:37PM 0.7618 13.1073 179° South  Level Estimated
10:38PM 0.6349 13.1089 179° South  Level Estimated
10:39PM 0.5080 13.1106 179° South  Level Estimated
10:40PM 0.3810 13.1122 179° South  Level Estimated
10:41PM 0.2541 13.1138 179° South  Level Estimated
10:42PM 0.1271 13.1154 179° South  Level Estimated
10:43PM 0.0002 13.1170 179° South  Level Estimated
10:44PM -0.1267 13.1187 179° South  Level Estimated
10:45PM -0.2537 13.1203 179° South  Level Estimated
10:46PM -0.3806 13.1219 179° South  Level Estimated
10:47PM -0.5076 13.1235 179° South  Level Estimated
10:48PM -0.6345 13.1251 179° South  Level Estimated
10:49PM -0.7614 13.1268 179° South  Level Estimated
10:50PM -0.8884 13.1284 179° South  Level Estimated
10:51PM -1.0153 13.1300 179° South  Level Estimated
10:52PM -1.1422 13.1316 179° South  Level Estimated
10:53PM -1.2692 13.1332 179° South  Level Estimated
10:54PM -1.3961 13.1349 179° South  Level Estimated
10:55PM -1.5231 13.1365 179° South  Level Estimated
10:56PM -1.6500 13.1381 179° South  Level Estimated
10:57PM -1.7770 13.1397 179° South  Level Estimated
10:58PM -1.9039 13.1413 179° South  Level Estimated
10:59PM -2.0308 13.1430 179° South  Level Estimated
11:00PM -2.1578 13.1446 179° South  Level Estimated
11:01PM -2.2847 13.1462 179° South  Level Estimated
11:02PM -2.4116 13.1479 179° South  Level Estimated
11:03PM -2.5386 13.1495 179° South  Level Estimated
11:04PM -2.6655 13.1511 179° South  Level Estimated
11:05PM -2.7925 13.1528 179° South  Level Estimated
11:06PM -2.9194 13.1544 179° South  Level Estimated
11:07PM -3.0464 13.1560 179° South  Level Estimated
11:08PM -3.1733 13.1576 179° South  Level Estimated
11:09PM -3.3002 13.1593 179° South  Level Estimated
11:10PM -3.4272 13.1609 179° South  Level Estimated
11:11PM -3.5541 13.1625 179° South  Level Estimated
11:12PM -3.6811 13.1642 179° South  Level Estimated
11:13PM -3.8080 13.1658 179° South  Level Estimated
11:14PM -3.9349 13.1674 179° South  Level Estimated
11:15PM -4.0619 13.1691 179° South  Level Estimated
11:16PM -4.1888 13.1707 179° South  Level Estimated
11:17PM -4.3158 13.1723 179° South  Level Estimated
11:18PM -4.4427 13.1739 179° South  Level Estimated
11:19PM -4.5696 13.1756 179° South  Level Estimated
11:20PM -4.6966 13.1772 179° South  Level Estimated
11:21PM -4.8235 13.1788 179° South  Level Estimated
11:22PM -4.9504 13.1805 179° South  Level Estimated
11:23PM -5.0774 13.1821 179° South  Level Estimated
11:24PM -5.2043 13.1837 179° South  Level Estimated
11:25PM -5.3313 13.1854 179° South  Level Estimated
11:26PM -5.4582 13.1870 179° South  Level Estimated
11:27PM -5.5851 13.1887 179° South  Level Estimated
11:28PM -5.7121 13.1903 179° South  Level Estimated
11:29PM -5.8390 13.1919 179° South  Level Estimated
11:30PM -5.9660 13.1936 179° South  Level Estimated
11:31PM -6.0929 13.1952 179° South  Level Estimated
11:32PM -6.2199 13.1969 179° South  Level Estimated
11:33PM -6.3468 13.1985 179° South  Level Estimated
11:34PM -6.4737 13.2001 179° South  Level Estimated
11:35PM -6.6007 13.2018 179° South  Level Estimated
11:36PM -6.7276 13.2034 179° South  Level Estimated
11:37PM -6.8545 13.2051 179° South  Level Estimated
11:38PM -6.9815 13.2067 179° South  Level Estimated
11:39PM -7.1084 13.2084 179° South  Level Estimated
11:40PM -7.2354 13.2100 179° South  Level Estimated
11:41PM -7.3623 13.2117 179° South  Level Estimated
11:42PM -7.4893 13.2133 179° South  Level Estimated
11:43PM -7.6162 13.2150 179° South  Level Estimated
11:44PM -7.7431 13.2166 179° South  Level Estimated
11:45PM -7.8701 13.2183 179° South  Level Estimated
11:46PM -7.9970 13.2199 179° South  Level Estimated
11:47PM -8.1240 13.2216 179° South  Level Estimated
11:48PM -8.2509 13.2232 179° South  Level Estimated
11:49PM -8.3778 13.2249 179° South  Level Estimated
11:50PM -8.5048 13.2266 179° South  Level Estimated
11:51PM -8.6317 13.2282 179° South  Level Estimated
11:52PM -8.7586 13.2299 179° South  Level Estimated
11:53PM -8.8584 13.2312 179° South  Level Estimated
11:54PM -8.8584 13.2312 338° Northwest  Level Estimated
11:55PM -8.8584 13.2312 338° Northwest  Level Estimated
11:56PM -8.8584 13.2312 338° Northwest  Level Estimated
11:57PM -8.8584 13.2312 338° Northwest  Level Estimated
11:58PM -8.8584 13.2312 338° Northwest  Level Estimated
11:59PM -8.8584 13.2312 338° Northwest  Level Estimated
12:00AM -8.8584 13.2312 338° Northwest  Level Estimated
12:01AM -8.8584 13.2312 338° Northwest  Level Estimated
12:02AM -8.8584 13.2312 338° Northwest  Level Estimated
12:03AM -8.8584 13.2312 338° Northwest  Level Estimated
12:04AM -8.8584 13.2312 338° Northwest  Level Estimated
12:05AM -8.8584 13.2312 338° Northwest  Level Estimated
12:06AM -8.8584 13.2312 338° Northwest  Level Estimated
12:07AM -8.8584 13.2312 338° Northwest  Level Estimated
12:08AM -8.8584 13.2312 338° Northwest  Level Estimated
12:09AM -8.8584 13.2312 338° Northwest  Level Estimated
12:10AM -8.8584 13.2312 338° Northwest  Level Estimated
12:11AM -8.8584 13.2312 338° Northwest  Level Estimated
12:12AM -8.8584 13.2312 338° Northwest  Level Estimated
12:13AM -8.8584 13.2312 338° Northwest  Level Estimated